sensor_id;sensor_type;location;lat;lon;timestamp;temperature;humidity
16999;DHT22;10211;49.476;11.010;2022-12-10T00:01:43;-2.20;99.90
16999;DHT22;10211;49.476;11.010;2022-12-10T00:04:12;-2.20;99.90
16999;DHT22;10211;49.476;11.010;2022-12-10T00:06:39;-2.20;99.90
16999;DHT22;10211;49.476;11.010;2022-12-10T00:09:09;-2.20;99.90
16999;DHT22;10211;49.476;11.010;2022-12-10T00:11:37;-2.20;99.90
16999;DHT22;10211;49.476;11.010;2022-12-10T00:14:04;-2.20;99.90
16999;DHT22;10211;49.476;11.010;2022-12-10T00:16:32;-2.30;99.90
16999;DHT22;10211;49.476;11.010;2022-12-10T00:19:01;-2.30;99.90
16999;DHT22;10211;49.476;11.010;2022-12-10T00:21:30;-2.40;99.90
16999;DHT22;10211;49.476;11.010;2022-12-10T00:23:58;-2.40;99.90
16999;DHT22;10211;49.476;11.010;2022-12-10T00:26:26;-2.50;99.90
16999;DHT22;10211;49.476;11.010;2022-12-10T00:28:54;-2.60;99.90
16999;DHT22;10211;49.476;11.010;2022-12-10T00:31:23;-2.60;99.90
16999;DHT22;10211;49.476;11.010;2022-12-10T00:33:52;-2.70;99.90
16999;DHT22;10211;49.476;11.010;2022-12-10T00:36:24;-2.70;99.90
16999;DHT22;10211;49.476;11.010;2022-12-10T00:38:51;-2.80;99.90
16999;DHT22;10211;49.476;11.010;2022-12-10T00:41:19;-2.90;99.90
16999;DHT22;10211;49.476;11.010;2022-12-10T00:43:46;-2.90;99.90
16999;DHT22;10211;49.476;11.010;2022-12-10T00:46:15;-3.00;99.90
16999;DHT22;10211;49.476;11.010;2022-12-10T00:48:42;-3.00;99.90
16999;DHT22;10211;49.476;11.010;2022-12-10T00:51:11;-3.10;99.90
16999;DHT22;10211;49.476;11.010;2022-12-10T00:53:41;-3.00;99.90
16999;DHT22;10211;49.476;11.010;2022-12-10T00:56:09;-3.00;99.90
16999;DHT22;10211;49.476;11.010;2022-12-10T00:58:37;-3.00;99.90
16999;DHT22;10211;49.476;11.010;2022-12-10T01:01:19;-3.00;99.90
16999;DHT22;10211;49.476;11.010;2022-12-10T01:03:47;-2.90;99.90
16999;DHT22;10211;49.476;11.010;2022-12-10T01:06:16;-2.90;99.90
16999;DHT22;10211;49.476;11.010;2022-12-10T01:08:45;-2.80;99.90
16999;DHT22;10211;49.476;11.010;2022-12-10T01:11:15;-2.70;99.90
16999;DHT22;10211;49.476;11.010;2022-12-10T01:13:48;-2.70;99.90
16999;DHT22;10211;49.476;11.010;2022-12-10T01:16:18;-2.60;99.90
16999;DHT22;10211;49.476;11.010;2022-12-10T01:18:46;-2.50;99.90
16999;DHT22;10211;49.476;11.010;2022-12-10T01:21:14;-2.50;99.90
16999;DHT22;10211;49.476;11.010;2022-12-10T01:23:42;-2.40;99.90
16999;DHT22;10211;49.476;11.010;2022-12-10T01:26:13;-2.40;99.90
16999;DHT22;10211;49.476;11.010;2022-12-10T01:28:41;-2.30;99.90
16999;DHT22;10211;49.476;11.010;2022-12-10T01:31:09;-2.20;99.90
16999;DHT22;10211;49.476;11.010;2022-12-10T01:33:37;-2.20;99.90
16999;DHT22;10211;49.476;11.010;2022-12-10T01:36:07;-2.20;99.90
16999;DHT22;10211;49.476;11.010;2022-12-10T01:38:34;-2.10;99.90
16999;DHT22;10211;49.476;11.010;2022-12-10T01:41:01;-2.00;99.90
16999;DHT22;10211;49.476;11.010;2022-12-10T01:43:52;-2.00;99.90
16999;DHT22;10211;49.476;11.010;2022-12-10T01:46:20;-2.00;99.90
16999;DHT22;10211;49.476;11.010;2022-12-10T01:48:46;-1.90;99.90
16999;DHT22;10211;49.476;11.010;2022-12-10T01:51:14;-1.90;99.90
16999;DHT22;10211;49.476;11.010;2022-12-10T01:53:43;-1.80;99.90
16999;DHT22;10211;49.476;11.010;2022-12-10T01:56:10;-1.80;99.90
16999;DHT22;10211;49.476;11.010;2022-12-10T01:58:39;-1.90;99.90
16999;DHT22;10211;49.476;11.010;2022-12-10T02:01:08;-1.80;99.90
16999;DHT22;10211;49.476;11.010;2022-12-10T02:03:45;-1.80;99.90
16999;DHT22;10211;49.476;11.010;2022-12-10T02:06:26;-1.80;99.90
16999;DHT22;10211;49.476;11.010;2022-12-10T02:09:02;-1.80;99.90
16999;DHT22;10211;49.476;11.010;2022-12-10T02:11:37;-1.80;99.90
16999;DHT22;10211;49.476;11.010;2022-12-10T02:14:13;-1.80;99.90
16999;DHT22;10211;49.476;11.010;2022-12-10T02:16:46;-1.80;99.90
16999;DHT22;10211;49.476;11.010;2022-12-10T02:19:20;-1.70;99.90
16999;DHT22;10211;49.476;11.010;2022-12-10T02:21:50;-1.70;99.90
16999;DHT22;10211;49.476;11.010;2022-12-10T02:24:22;-1.70;99.90
16999;DHT22;10211;49.476;11.010;2022-12-10T02:26:56;-1.70;99.90
16999;DHT22;10211;49.476;11.010;2022-12-10T02:29:27;-1.70;99.90
16999;DHT22;10211;49.476;11.010;2022-12-10T02:31:57;-1.70;99.90
16999;DHT22;10211;49.476;11.010;2022-12-10T02:34:28;-1.60;99.90
16999;DHT22;10211;49.476;11.010;2022-12-10T02:36:59;-1.60;99.90
16999;DHT22;10211;49.476;11.010;2022-12-10T02:39:31;-1.60;99.90
16999;DHT22;10211;49.476;11.010;2022-12-10T02:42:01;-1.60;99.90
16999;DHT22;10211;49.476;11.010;2022-12-10T02:44:31;-1.50;99.90
16999;DHT22;10211;49.476;11.010;2022-12-10T02:47:00;-1.50;99.90
16999;DHT22;10211;49.476;11.010;2022-12-10T02:49:28;-1.50;99.90
16999;DHT22;10211;49.476;11.010;2022-12-10T02:51:56;-1.50;99.90
16999;DHT22;10211;49.476;11.010;2022-12-10T02:54:39;-1.50;99.90
16999;DHT22;10211;49.476;11.010;2022-12-10T02:57:22;-1.40;99.90
16999;DHT22;10211;49.476;11.010;2022-12-10T03:00:03;-1.40;99.90
16999;DHT22;10211;49.476;11.010;2022-12-10T03:02:38;-1.40;99.90
16999;DHT22;10211;49.476;11.010;2022-12-10T03:05:14;-1.40;99.90
16999;DHT22;10211;49.476;11.010;2022-12-10T03:07:47;-1.40;99.90
16999;DHT22;10211;49.476;11.010;2022-12-10T03:10:22;-1.40;99.90
16999;DHT22;10211;49.476;11.010;2022-12-10T03:12:57;-1.40;99.90
16999;DHT22;10211;49.476;11.010;2022-12-10T03:15:27;-1.40;99.90
16999;DHT22;10211;49.476;11.010;2022-12-10T03:17:56;-1.40;99.90
16999;DHT22;10211;49.476;11.010;2022-12-10T03:20:24;-1.40;99.90
16999;DHT22;10211;49.476;11.010;2022-12-10T03:22:51;-1.40;99.90
16999;DHT22;10211;49.476;11.010;2022-12-10T03:25:23;-1.40;99.90
16999;DHT22;10211;49.476;11.010;2022-12-10T03:27:53;-1.40;99.90
16999;DHT22;10211;49.476;11.010;2022-12-10T03:30:20;-1.40;99.90
16999;DHT22;10211;49.476;11.010;2022-12-10T03:32:49;-1.40;99.90
16999;DHT22;10211;49.476;11.010;2022-12-10T03:35:17;-1.40;99.90
16999;DHT22;10211;49.476;11.010;2022-12-10T03:37:46;-1.40;99.90
16999;DHT22;10211;49.476;11.010;2022-12-10T03:40:15;-1.40;99.90
16999;DHT22;10211;49.476;11.010;2022-12-10T03:42:43;-1.40;99.90
16999;DHT22;10211;49.476;11.010;2022-12-10T03:45:10;-1.40;99.90
16999;DHT22;10211;49.476;11.010;2022-12-10T03:47:37;-1.40;99.90
16999;DHT22;10211;49.476;11.010;2022-12-10T03:50:06;-1.40;99.90
16999;DHT22;10211;49.476;11.010;2022-12-10T03:52:33;-1.40;99.90
16999;DHT22;10211;49.476;11.010;2022-12-10T03:55:00;-1.50;99.90
16999;DHT22;10211;49.476;11.010;2022-12-10T03:57:27;-1.50;99.90
16999;DHT22;10211;49.476;11.010;2022-12-10T03:59:54;-1.50;99.90
16999;DHT22;10211;49.476;11.010;2022-12-10T04:02:21;-1.50;99.90
16999;DHT22;10211;49.476;11.010;2022-12-10T04:04:47;-1.50;99.90
16999;DHT22;10211;49.476;11.010;2022-12-10T04:07:16;-1.50;99.90
16999;DHT22;10211;49.476;11.010;2022-12-10T04:09:43;-1.50;99.90
16999;DHT22;10211;49.476;11.010;2022-12-10T04:12:09;-1.50;99.90
16999;DHT22;10211;49.476;11.010;2022-12-10T04:14:36;-1.60;99.90
16999;DHT22;10211;49.476;11.010;2022-12-10T04:17:20;-1.60;99.90
16999;DHT22;10211;49.476;11.010;2022-12-10T04:19:47;-1.60;99.90
16999;DHT22;10211;49.476;11.010;2022-12-10T04:22:15;-1.60;99.90
16999;DHT22;10211;49.476;11.010;2022-12-10T04:24:59;-1.70;99.90
16999;DHT22;10211;49.476;11.010;2022-12-10T04:27:49;-1.70;99.90
16999;DHT22;10211;49.476;11.010;2022-12-10T04:30:16;-1.70;99.90
16999;DHT22;10211;49.476;11.010;2022-12-10T04:32:43;-1.70;99.90
16999;DHT22;10211;49.476;11.010;2022-12-10T04:35:10;-1.70;99.90
16999;DHT22;10211;49.476;11.010;2022-12-10T04:37:38;-1.70;99.90
16999;DHT22;10211;49.476;11.010;2022-12-10T04:40:06;-1.70;99.90
16999;DHT22;10211;49.476;11.010;2022-12-10T04:42:33;-1.70;99.90
16999;DHT22;10211;49.476;11.010;2022-12-10T04:45:00;-1.70;99.90
16999;DHT22;10211;49.476;11.010;2022-12-10T04:47:27;-1.70;99.90
16999;DHT22;10211;49.476;11.010;2022-12-10T04:49:53;-1.70;99.90
16999;DHT22;10211;49.476;11.010;2022-12-10T04:52:20;-1.70;99.90
16999;DHT22;10211;49.476;11.010;2022-12-10T04:54:48;-1.80;99.90
16999;DHT22;10211;49.476;11.010;2022-12-10T04:57:15;-1.80;99.90
16999;DHT22;10211;49.476;11.010;2022-12-10T04:59:42;-1.80;99.90
16999;DHT22;10211;49.476;11.010;2022-12-10T05:02:09;-1.80;99.90
16999;DHT22;10211;49.476;11.010;2022-12-10T05:04:36;-1.80;99.90
16999;DHT22;10211;49.476;11.010;2022-12-10T05:07:03;-1.80;99.90
16999;DHT22;10211;49.476;11.010;2022-12-10T05:09:29;-1.80;99.90
16999;DHT22;10211;49.476;11.010;2022-12-10T05:11:58;-1.90;99.90
16999;DHT22;10211;49.476;11.010;2022-12-10T05:14:24;-1.90;99.90
16999;DHT22;10211;49.476;11.010;2022-12-10T05:16:51;-1.90;99.90
16999;DHT22;10211;49.476;11.010;2022-12-10T05:19:18;-1.90;99.90
16999;DHT22;10211;49.476;11.010;2022-12-10T05:21:47;-1.90;99.90
16999;DHT22;10211;49.476;11.010;2022-12-10T05:24:31;-2.00;99.90
16999;DHT22;10211;49.476;11.010;2022-12-10T05:26:59;-2.00;99.90
16999;DHT22;10211;49.476;11.010;2022-12-10T05:29:26;-2.00;99.90
16999;DHT22;10211;49.476;11.010;2022-12-10T05:31:53;-2.00;99.90
16999;DHT22;10211;49.476;11.010;2022-12-10T05:34:20;-2.00;99.90
16999;DHT22;10211;49.476;11.010;2022-12-10T05:36:47;-2.10;99.90
16999;DHT22;10211;49.476;11.010;2022-12-10T05:39:14;-2.10;99.90
16999;DHT22;10211;49.476;11.010;2022-12-10T05:41:40;-2.10;99.90
16999;DHT22;10211;49.476;11.010;2022-12-10T05:44:10;-2.10;99.90
16999;DHT22;10211;49.476;11.010;2022-12-10T05:46:38;-2.10;99.90
16999;DHT22;10211;49.476;11.010;2022-12-10T05:49:06;-2.10;99.90
16999;DHT22;10211;49.476;11.010;2022-12-10T05:51:35;-2.10;99.90
16999;DHT22;10211;49.476;11.010;2022-12-10T05:54:03;-2.10;99.90
16999;DHT22;10211;49.476;11.010;2022-12-10T05:56:31;-2.20;99.90
16999;DHT22;10211;49.476;11.010;2022-12-10T05:58:59;-2.20;99.90
16999;DHT22;10211;49.476;11.010;2022-12-10T06:01:29;-2.20;99.90
16999;DHT22;10211;49.476;11.010;2022-12-10T06:03:57;-2.30;99.90
16999;DHT22;10211;49.476;11.010;2022-12-10T06:06:25;-2.30;99.90
16999;DHT22;10211;49.476;11.010;2022-12-10T06:08:52;-2.30;99.90
16999;DHT22;10211;49.476;11.010;2022-12-10T06:11:19;-2.30;99.90
16999;DHT22;10211;49.476;11.010;2022-12-10T06:13:47;-2.20;99.90
16999;DHT22;10211;49.476;11.010;2022-12-10T06:16:14;-2.20;99.90
16999;DHT22;10211;49.476;11.010;2022-12-10T06:18:43;-2.20;99.90
16999;DHT22;10211;49.476;11.010;2022-12-10T06:21:12;-2.20;99.90
16999;DHT22;10211;49.476;11.010;2022-12-10T06:23:40;-2.20;99.90
16999;DHT22;10211;49.476;11.010;2022-12-10T06:26:08;-2.20;99.90
16999;DHT22;10211;49.476;11.010;2022-12-10T06:28:36;-2.20;99.90
16999;DHT22;10211;49.476;11.010;2022-12-10T06:31:03;-2.20;99.90
16999;DHT22;10211;49.476;11.010;2022-12-10T06:33:30;-2.20;99.90
16999;DHT22;10211;49.476;11.010;2022-12-10T06:35:58;-2.20;99.90
16999;DHT22;10211;49.476;11.010;2022-12-10T06:38:25;-2.20;99.90
16999;DHT22;10211;49.476;11.010;2022-12-10T06:40:52;-2.30;99.90
16999;DHT22;10211;49.476;11.010;2022-12-10T06:43:19;-2.30;99.90
16999;DHT22;10211;49.476;11.010;2022-12-10T06:45:46;-2.30;99.90
16999;DHT22;10211;49.476;11.010;2022-12-10T06:48:12;-2.30;99.90
16999;DHT22;10211;49.476;11.010;2022-12-10T06:50:39;-2.40;99.90
16999;DHT22;10211;49.476;11.010;2022-12-10T06:53:08;-2.40;99.90
16999;DHT22;10211;49.476;11.010;2022-12-10T06:55:36;-2.30;99.90
16999;DHT22;10211;49.476;11.010;2022-12-10T06:58:02;-2.30;99.90
16999;DHT22;10211;49.476;11.010;2022-12-10T07:00:29;-2.30;99.90
16999;DHT22;10211;49.476;11.010;2022-12-10T07:02:56;-2.30;99.90
16999;DHT22;10211;49.476;11.010;2022-12-10T07:05:23;-2.20;99.90
16999;DHT22;10211;49.476;11.010;2022-12-10T07:07:50;-2.20;99.90
16999;DHT22;10211;49.476;11.010;2022-12-10T07:10:18;-2.20;99.90
16999;DHT22;10211;49.476;11.010;2022-12-10T07:12:45;-2.20;99.90
16999;DHT22;10211;49.476;11.010;2022-12-10T07:15:12;-2.20;99.90
16999;DHT22;10211;49.476;11.010;2022-12-10T07:17:38;-2.20;99.90
16999;DHT22;10211;49.476;11.010;2022-12-10T07:20:06;-2.20;99.90
16999;DHT22;10211;49.476;11.010;2022-12-10T07:22:33;-2.10;99.90
16999;DHT22;10211;49.476;11.010;2022-12-10T07:25:00;-2.10;99.90
16999;DHT22;10211;49.476;11.010;2022-12-10T07:27:30;-2.10;99.90
16999;DHT22;10211;49.476;11.010;2022-12-10T07:29:57;-2.10;99.90
16999;DHT22;10211;49.476;11.010;2022-12-10T07:32:26;-2.00;99.90
16999;DHT22;10211;49.476;11.010;2022-12-10T07:34:53;-2.00;99.90
16999;DHT22;10211;49.476;11.010;2022-12-10T07:37:20;-1.90;99.90
16999;DHT22;10211;49.476;11.010;2022-12-10T07:39:46;-1.90;99.90
16999;DHT22;10211;49.476;11.010;2022-12-10T07:42:13;-1.90;99.90
16999;DHT22;10211;49.476;11.010;2022-12-10T07:44:41;-1.80;99.90
16999;DHT22;10211;49.476;11.010;2022-12-10T07:47:08;-1.80;99.90
16999;DHT22;10211;49.476;11.010;2022-12-10T07:49:35;-1.70;99.90
16999;DHT22;10211;49.476;11.010;2022-12-10T07:52:02;-1.60;99.90
16999;DHT22;10211;49.476;11.010;2022-12-10T07:54:29;-1.60;99.90
16999;DHT22;10211;49.476;11.010;2022-12-10T07:56:56;-1.60;99.90
16999;DHT22;10211;49.476;11.010;2022-12-10T07:59:22;-1.60;99.90
16999;DHT22;10211;49.476;11.010;2022-12-10T08:01:51;-1.50;99.90
16999;DHT22;10211;49.476;11.010;2022-12-10T08:04:18;-1.50;99.90
16999;DHT22;10211;49.476;11.010;2022-12-10T08:06:44;-1.40;99.90
16999;DHT22;10211;49.476;11.010;2022-12-10T08:09:12;-1.40;99.90
16999;DHT22;10211;49.476;11.010;2022-12-10T08:11:39;-1.40;99.90
16999;DHT22;10211;49.476;11.010;2022-12-10T08:14:06;-1.30;99.90
16999;DHT22;10211;49.476;11.010;2022-12-10T08:16:33;-1.30;99.90
16999;DHT22;10211;49.476;11.010;2022-12-10T08:19:01;-1.20;99.90
16999;DHT22;10211;49.476;11.010;2022-12-10T08:21:30;-1.00;99.90
16999;DHT22;10211;49.476;11.010;2022-12-10T08:23:57;-0.90;99.90
16999;DHT22;10211;49.476;11.010;2022-12-10T08:26:27;-0.80;99.90
16999;DHT22;10211;49.476;11.010;2022-12-10T08:28:55;-0.70;99.90
16999;DHT22;10211;49.476;11.010;2022-12-10T08:31:23;-0.60;99.90
16999;DHT22;10211;49.476;11.010;2022-12-10T08:33:50;-0.60;99.90
16999;DHT22;10211;49.476;11.010;2022-12-10T08:36:19;-0.60;99.90
16999;DHT22;10211;49.476;11.010;2022-12-10T08:38:46;-0.60;99.90
16999;DHT22;10211;49.476;11.010;2022-12-10T08:41:14;-0.50;99.90
16999;DHT22;10211;49.476;11.010;2022-12-10T08:43:42;-0.40;99.90
16999;DHT22;10211;49.476;11.010;2022-12-10T08:46:10;-0.30;99.90
16999;DHT22;10211;49.476;11.010;2022-12-10T08:48:38;-0.10;99.90
16999;DHT22;10211;49.476;11.010;2022-12-10T08:51:06;-0.10;99.90
16999;DHT22;10211;49.476;11.010;2022-12-10T08:53:35;0.00;99.90
16999;DHT22;10211;49.476;11.010;2022-12-10T08:56:02;0.00;99.90
16999;DHT22;10211;49.476;11.010;2022-12-10T08:58:30;0.10;99.90
16999;DHT22;10211;49.476;11.010;2022-12-10T09:00:57;0.20;99.90
16999;DHT22;10211;49.476;11.010;2022-12-10T09:03:24;0.40;99.90
16999;DHT22;10211;49.476;11.010;2022-12-10T09:05:51;0.60;99.90
16999;DHT22;10211;49.476;11.010;2022-12-10T09:08:18;0.70;99.90
16999;DHT22;10211;49.476;11.010;2022-12-10T09:10:46;0.80;99.90
16999;DHT22;10211;49.476;11.010;2022-12-10T09:13:13;1.00;99.90
16999;DHT22;10211;49.476;11.010;2022-12-10T09:15:40;1.00;99.90
16999;DHT22;10211;49.476;11.010;2022-12-10T09:18:07;1.10;99.90
16999;DHT22;10211;49.476;11.010;2022-12-10T09:20:34;1.20;99.90
16999;DHT22;10211;49.476;11.010;2022-12-10T09:23:03;1.20;99.90
16999;DHT22;10211;49.476;11.010;2022-12-10T09:25:29;1.30;99.90
16999;DHT22;10211;49.476;11.010;2022-12-10T09:27:57;1.30;99.90
16999;DHT22;10211;49.476;11.010;2022-12-10T09:30:25;1.40;99.90
16999;DHT22;10211;49.476;11.010;2022-12-10T09:32:51;1.40;99.90
16999;DHT22;10211;49.476;11.010;2022-12-10T09:35:18;1.40;99.90
16999;DHT22;10211;49.476;11.010;2022-12-10T09:37:45;1.40;99.90
16999;DHT22;10211;49.476;11.010;2022-12-10T09:40:15;1.50;99.90
16999;DHT22;10211;49.476;11.010;2022-12-10T09:42:48;1.50;99.90
16999;DHT22;10211;49.476;11.010;2022-12-10T09:45:26;1.40;99.90
16999;DHT22;10211;49.476;11.010;2022-12-10T09:48:01;1.40;99.90
16999;DHT22;10211;49.476;11.010;2022-12-10T09:50:33;1.50;99.90
16999;DHT22;10211;49.476;11.010;2022-12-10T09:53:02;1.40;99.90
16999;DHT22;10211;49.476;11.010;2022-12-10T09:55:35;1.60;99.90
16999;DHT22;10211;49.476;11.010;2022-12-10T09:58:05;1.30;99.90
16999;DHT22;10211;49.476;11.010;2022-12-10T10:00:36;1.20;99.90
16999;DHT22;10211;49.476;11.010;2022-12-10T10:03:04;1.20;99.90
16999;DHT22;10211;49.476;11.010;2022-12-10T10:05:35;1.10;99.90
16999;DHT22;10211;49.476;11.010;2022-12-10T10:08:04;1.10;99.90
16999;DHT22;10211;49.476;11.010;2022-12-10T10:10:33;1.20;99.90
16999;DHT22;10211;49.476;11.010;2022-12-10T10:13:12;1.20;99.90
16999;DHT22;10211;49.476;11.010;2022-12-10T10:15:43;1.20;99.90
16999;DHT22;10211;49.476;11.010;2022-12-10T10:18:16;1.20;99.90
16999;DHT22;10211;49.476;11.010;2022-12-10T10:20:44;1.30;99.90
16999;DHT22;10211;49.476;11.010;2022-12-10T10:23:13;1.50;99.90
16999;DHT22;10211;49.476;11.010;2022-12-10T10:25:40;1.60;99.90
16999;DHT22;10211;49.476;11.010;2022-12-10T10:28:10;1.70;99.90
16999;DHT22;10211;49.476;11.010;2022-12-10T10:30:42;1.80;99.90
16999;DHT22;10211;49.476;11.010;2022-12-10T10:33:13;1.80;99.90
16999;DHT22;10211;49.476;11.010;2022-12-10T10:35:45;2.00;99.90
16999;DHT22;10211;49.476;11.010;2022-12-10T10:38:17;2.00;99.90
16999;DHT22;10211;49.476;11.010;2022-12-10T10:40:49;2.10;99.90
16999;DHT22;10211;49.476;11.010;2022-12-10T10:43:21;2.10;99.90
16999;DHT22;10211;49.476;11.010;2022-12-10T10:45:52;2.10;99.90
16999;DHT22;10211;49.476;11.010;2022-12-10T10:48:21;2.00;99.90
16999;DHT22;10211;49.476;11.010;2022-12-10T10:50:50;1.90;99.90
16999;DHT22;10211;49.476;11.010;2022-12-10T10:53:22;1.70;99.90
16999;DHT22;10211;49.476;11.010;2022-12-10T10:55:49;1.70;99.90
16999;DHT22;10211;49.476;11.010;2022-12-10T10:58:18;1.70;99.90
16999;DHT22;10211;49.476;11.010;2022-12-10T11:00:55;1.80;99.90
16999;DHT22;10211;49.476;11.010;2022-12-10T11:03:23;1.90;99.90
16999;DHT22;10211;49.476;11.010;2022-12-10T11:05:50;2.10;99.90
16999;DHT22;10211;49.476;11.010;2022-12-10T11:08:19;2.30;99.90
16999;DHT22;10211;49.476;11.010;2022-12-10T11:10:47;2.50;99.90
16999;DHT22;10211;49.476;11.010;2022-12-10T11:13:22;3.00;99.90
16999;DHT22;10211;49.476;11.010;2022-12-10T11:15:57;3.60;99.90
16999;DHT22;10211;49.476;11.010;2022-12-10T11:18:30;3.90;99.90
16999;DHT22;10211;49.476;11.010;2022-12-10T11:21:03;3.90;99.90
16999;DHT22;10211;49.476;11.010;2022-12-10T11:23:31;3.90;99.90
16999;DHT22;10211;49.476;11.010;2022-12-10T11:26:11;3.80;99.90
16999;DHT22;10211;49.476;11.010;2022-12-10T11:28:48;3.60;99.90
16999;DHT22;10211;49.476;11.010;2022-12-10T11:31:32;3.40;99.90
16999;DHT22;10211;49.476;11.010;2022-12-10T11:34:08;3.10;99.90
16999;DHT22;10211;49.476;11.010;2022-12-10T11:36:49;2.90;99.90
16999;DHT22;10211;49.476;11.010;2022-12-10T11:39:29;2.70;99.90
16999;DHT22;10211;49.476;11.010;2022-12-10T11:42:04;2.70;99.90
16999;DHT22;10211;49.476;11.010;2022-12-10T11:44:40;2.50;99.90
16999;DHT22;10211;49.476;11.010;2022-12-10T11:47:24;2.40;99.90
16999;DHT22;10211;49.476;11.010;2022-12-10T11:50:02;2.50;99.90
16999;DHT22;10211;49.476;11.010;2022-12-10T11:52:41;2.50;99.90
16999;DHT22;10211;49.476;11.010;2022-12-10T11:55:18;2.50;99.90
16999;DHT22;10211;49.476;11.010;2022-12-10T11:57:51;2.50;99.90
16999;DHT22;10211;49.476;11.010;2022-12-10T12:00:24;2.50;99.90
16999;DHT22;10211;49.476;11.010;2022-12-10T12:03:10;2.30;99.90
16999;DHT22;10211;49.476;11.010;2022-12-10T12:05:52;2.30;99.90
16999;DHT22;10211;49.476;11.010;2022-12-10T12:08:29;2.30;99.90
16999;DHT22;10211;49.476;11.010;2022-12-10T12:11:08;2.40;99.90
16999;DHT22;10211;49.476;11.010;2022-12-10T12:13:50;2.30;99.90
16999;DHT22;10211;49.476;11.010;2022-12-10T12:16:21;2.40;99.90
16999;DHT22;10211;49.476;11.010;2022-12-10T12:18:55;2.40;99.90
16999;DHT22;10211;49.476;11.010;2022-12-10T12:21:25;2.30;99.90
16999;DHT22;10211;49.476;11.010;2022-12-10T12:23:56;2.30;99.90
16999;DHT22;10211;49.476;11.010;2022-12-10T12:26:27;2.30;99.90
16999;DHT22;10211;49.476;11.010;2022-12-10T12:29:00;2.40;99.90
16999;DHT22;10211;49.476;11.010;2022-12-10T12:31:31;2.50;99.90
16999;DHT22;10211;49.476;11.010;2022-12-10T12:34:05;2.50;99.90
16999;DHT22;10211;49.476;11.010;2022-12-10T12:36:34;2.60;99.90
16999;DHT22;10211;49.476;11.010;2022-12-10T12:39:09;2.50;99.90
16999;DHT22;10211;49.476;11.010;2022-12-10T12:41:43;2.30;99.90
16999;DHT22;10211;49.476;11.010;2022-12-10T12:44:17;2.10;99.90
16999;DHT22;10211;49.476;11.010;2022-12-10T12:46:47;2.00;99.90
16999;DHT22;10211;49.476;11.010;2022-12-10T12:49:20;1.90;99.90
16999;DHT22;10211;49.476;11.010;2022-12-10T12:51:53;1.90;99.90
16999;DHT22;10211;49.476;11.010;2022-12-10T12:54:21;1.90;99.90
16999;DHT22;10211;49.476;11.010;2022-12-10T12:57:07;2.00;99.90
16999;DHT22;10211;49.476;11.010;2022-12-10T12:59:49;2.00;99.90
16999;DHT22;10211;49.476;11.010;2022-12-10T13:02:44;2.00;99.90
16999;DHT22;10211;49.476;11.010;2022-12-10T13:05:18;2.10;99.90
16999;DHT22;10211;49.476;11.010;2022-12-10T13:08:22;2.20;99.90
16999;DHT22;10211;49.476;11.010;2022-12-10T13:10:52;2.30;99.90
16999;DHT22;10211;49.476;11.010;2022-12-10T13:13:24;2.30;99.90
16999;DHT22;10211;49.476;11.010;2022-12-10T13:15:52;2.30;99.90
16999;DHT22;10211;49.476;11.010;2022-12-10T13:18:36;2.30;99.90
16999;DHT22;10211;49.476;11.010;2022-12-10T13:21:27;2.30;99.90
16999;DHT22;10211;49.476;11.010;2022-12-10T13:24:05;2.20;99.90
16999;DHT22;10211;49.476;11.010;2022-12-10T13:26:33;2.20;99.90
16999;DHT22;10211;49.476;11.010;2022-12-10T13:29:12;2.20;99.90
16999;DHT22;10211;49.476;11.010;2022-12-10T13:31:39;2.10;99.90
16999;DHT22;10211;49.476;11.010;2022-12-10T13:34:22;2.00;99.90
16999;DHT22;10211;49.476;11.010;2022-12-10T13:37:19;1.90;99.90
16999;DHT22;10211;49.476;11.010;2022-12-10T13:40:00;1.80;99.90
16999;DHT22;10211;49.476;11.010;2022-12-10T13:42:31;1.60;99.90
16999;DHT22;10211;49.476;11.010;2022-12-10T13:45:31;1.50;99.90
16999;DHT22;10211;49.476;11.010;2022-12-10T13:48:17;1.40;99.90
16999;DHT22;10211;49.476;11.010;2022-12-10T13:50:52;1.30;99.90
16999;DHT22;10211;49.476;11.010;2022-12-10T13:53:32;1.30;99.90
16999;DHT22;10211;49.476;11.010;2022-12-10T13:56:06;1.40;99.90
16999;DHT22;10211;49.476;11.010;2022-12-10T13:58:42;1.40;99.90
16999;DHT22;10211;49.476;11.010;2022-12-10T14:01:15;1.40;99.90
16999;DHT22;10211;49.476;11.010;2022-12-10T14:04:10;1.50;99.90
16999;DHT22;10211;49.476;11.010;2022-12-10T14:06:43;1.40;99.90
16999;DHT22;10211;49.476;11.010;2022-12-10T14:09:17;1.40;99.90
16999;DHT22;10211;49.476;11.010;2022-12-10T14:11:48;1.40;99.90
16999;DHT22;10211;49.476;11.010;2022-12-10T14:14:22;1.50;99.90
16999;DHT22;10211;49.476;11.010;2022-12-10T14:16:50;1.50;99.90
16999;DHT22;10211;49.476;11.010;2022-12-10T14:19:18;1.50;99.90
16999;DHT22;10211;49.476;11.010;2022-12-10T14:21:45;1.40;99.90
16999;DHT22;10211;49.476;11.010;2022-12-10T14:24:28;1.40;99.90
16999;DHT22;10211;49.476;11.010;2022-12-10T14:27:01;1.40;99.90
16999;DHT22;10211;49.476;11.010;2022-12-10T14:29:29;1.40;99.90
16999;DHT22;10211;49.476;11.010;2022-12-10T14:31:56;1.40;99.90
16999;DHT22;10211;49.476;11.010;2022-12-10T14:34:25;1.30;99.90
16999;DHT22;10211;49.476;11.010;2022-12-10T14:36:54;1.30;99.90
16999;DHT22;10211;49.476;11.010;2022-12-10T14:39:25;1.30;99.90
16999;DHT22;10211;49.476;11.010;2022-12-10T14:41:57;1.20;99.90
16999;DHT22;10211;49.476;11.010;2022-12-10T14:44:24;1.20;99.90
16999;DHT22;10211;49.476;11.010;2022-12-10T14:47:03;1.20;99.90
16999;DHT22;10211;49.476;11.010;2022-12-10T14:49:30;1.10;99.90
16999;DHT22;10211;49.476;11.010;2022-12-10T14:51:57;1.10;99.90
16999;DHT22;10211;49.476;11.010;2022-12-10T14:54:26;1.10;99.90
16999;DHT22;10211;49.476;11.010;2022-12-10T14:56:55;1.10;99.90
16999;DHT22;10211;49.476;11.010;2022-12-10T14:59:26;1.10;99.90
16999;DHT22;10211;49.476;11.010;2022-12-10T15:01:56;1.10;99.90
16999;DHT22;10211;49.476;11.010;2022-12-10T15:04:40;1.10;99.90
16999;DHT22;10211;49.476;11.010;2022-12-10T15:07:11;1.10;99.90
16999;DHT22;10211;49.476;11.010;2022-12-10T15:09:39;1.10;99.90
16999;DHT22;10211;49.476;11.010;2022-12-10T15:12:22;1.10;99.90
16999;DHT22;10211;49.476;11.010;2022-12-10T15:14:51;1.10;99.90
16999;DHT22;10211;49.476;11.010;2022-12-10T15:17:39;1.00;99.90
16999;DHT22;10211;49.476;11.010;2022-12-10T15:20:18;1.00;99.90
16999;DHT22;10211;49.476;11.010;2022-12-10T15:22:45;1.00;99.90
16999;DHT22;10211;49.476;11.010;2022-12-10T15:25:30;1.00;99.90
16999;DHT22;10211;49.476;11.010;2022-12-10T15:28:00;1.00;99.90
16999;DHT22;10211;49.476;11.010;2022-12-10T15:30:35;1.10;99.90
16999;DHT22;10211;49.476;11.010;2022-12-10T15:33:03;1.00;99.90
16999;DHT22;10211;49.476;11.010;2022-12-10T15:35:35;1.00;99.90
16999;DHT22;10211;49.476;11.010;2022-12-10T15:38:02;1.00;99.90
16999;DHT22;10211;49.476;11.010;2022-12-10T15:40:30;1.00;99.90
16999;DHT22;10211;49.476;11.010;2022-12-10T15:43:11;0.90;99.90
16999;DHT22;10211;49.476;11.010;2022-12-10T15:45:41;0.90;99.90